Time;durP1;ratioP1;P1;durP2;ratioP2;P2;SDS_P1;SDS_P2;PMS_P1;PMS_P2;Temp;Humidity;BMP_temperature;BMP_pressure;BME280_temperature;BME280_humidity;BME280_pressure;Samples;Min_cycle;Max_cycle;Signal;HPM_P1;HPM_P2
2022/01/04 00:01:22;;;;;;;3.70;0.70;;;11.00;99.90;;;;;;5033145;28;20033;-72
2022/01/04 00:03:48;;;;;;;2.40;0.50;;;11.00;99.90;;;;;;5033935;28;20044;-72
2022/01/04 00:06:14;;;;;;;2.65;0.80;;;11.00;99.90;;;;;;5035013;28;20120;-71
2022/01/04 00:08:40;;;;;;;2.25;0.70;;;10.90;99.90;;;;;;5032343;28;20086;-71
2022/01/04 00:11:16;;;;;;;1.50;0.45;;;10.90;99.90;;;;;;5025688;28;20068;-71
2022/01/04 00:13:43;;;;;;;1.70;0.50;;;10.90;99.90;;;;;;5033018;28;20022;-71
2022/01/04 00:16:10;;;;;;;1.95;0.60;;;10.90;99.90;;;;;;5025260;28;20037;-71
2022/01/04 00:18:37;;;;;;;2.42;0.50;;;10.90;99.90;;;;;;5028640;28;20100;-71
2022/01/04 00:21:03;;;;;;;1.45;0.50;;;10.90;99.90;;;;;;5014065;28;20027;-71
2022/01/04 00:23:33;;;;;;;1.63;0.47;;;10.90;99.90;;;;;;5012306;28;20071;-72
2022/01/04 00:25:59;;;;;;;2.53;0.73;;;10.90;99.90;;;;;;5032597;28;20022;-71
2022/01/04 00:28:25;;;;;;;1.23;0.68;;;10.90;99.90;;;;;;5014235;28;20040;-71
2022/01/04 00:30:51;;;;;;;1.40;0.60;;;10.90;99.90;;;;;;5028735;28;20057;-71
2022/01/04 00:33:17;;;;;;;1.52;0.60;;;10.80;99.90;;;;;;5033473;28;20482;-72
2022/01/04 00:35:44;;;;;;;1.77;0.60;;;10.80;99.90;;;;;;5028568;28;20525;-72
2022/01/04 00:38:10;;;;;;;1.50;0.60;;;10.80;99.90;;;;;;5010860;28;20402;-72
2022/01/04 00:40:37;;;;;;;1.30;0.63;;;10.80;99.90;;;;;;5032592;28;20083;-72
2022/01/04 00:43:04;;;;;;;3.08;0.60;;;10.80;99.90;;;;;;5027246;28;20037;-72
2022/01/04 00:45:35;;;;;;;1.23;0.70;;;10.80;99.90;;;;;;5029945;28;20036;-71
2022/01/04 00:50:36;;;;;;;2.72;0.88;;;10.70;99.90;;;;;;5034526;28;20050;-70
2022/01/04 00:53:03;;;;;;;2.03;0.88;;;10.70;99.90;;;;;;5025886;28;20029;-72
2022/01/04 00:55:29;;;;;;;1.38;0.93;;;10.70;99.90;;;;;;5029356;28;20025;-71
2022/01/04 00:57:56;;;;;;;1.13;0.70;;;10.70;99.90;;;;;;5032642;28;20032;-72
2022/01/04 01:00:22;;;;;;;3.10;1.00;;;10.70;99.90;;;;;;5036998;28;20502;-72
2022/01/04 01:02:48;;;;;;;1.77;0.70;;;10.70;99.90;;;;;;5013441;28;20153;-72
2022/01/04 01:05:15;;;;;;;3.67;1.08;;;10.70;99.90;;;;;;5017343;28;20022;-72
2022/01/04 01:07:41;;;;;;;1.98;1.10;;;10.70;99.90;;;;;;5010975;28;20039;-71
2022/01/04 01:13:01;;;;;;;2.53;1.08;;;10.80;99.90;;;;;;5022163;28;20378;-73
2022/01/04 01:15:27;;;;;;;1.45;0.60;;;10.80;99.90;;;;;;5031375;28;20033;-73
2022/01/04 01:17:56;;;;;;;1.85;0.75;;;10.80;99.90;;;;;;5034915;28;20025;-73
2022/01/04 01:20:22;;;;;;;2.00;0.88;;;10.70;99.90;;;;;;5028224;28;20483;-73
2022/01/04 01:22:48;;;;;;;2.35;0.88;;;10.70;99.90;;;;;;5022039;28;20029;-72
2022/01/04 01:27:42;;;;;;;1.75;0.60;;;10.70;99.90;;;;;;5044278;22;20045;-72
2022/01/04 01:30:09;;;;;;;2.47;0.98;;;10.70;99.90;;;;;;5015042;28;20056;-72
2022/01/04 01:32:34;;;;;;;1.33;0.77;;;10.70;99.90;;;;;;5018329;28;20404;-72
2022/01/04 01:35:00;;;;;;;1.50;0.70;;;10.60;99.90;;;;;;5000669;28;20018;-72
2022/01/04 01:37:29;;;;;;;1.33;0.82;;;10.70;99.90;;;;;;5024614;28;20055;-72
2022/01/04 01:39:54;;;;;;;1.98;0.90;;;10.70;99.90;;;;;;5017044;28;20042;-73
2022/01/04 01:42:20;;;;;;;1.70;1.00;;;10.70;99.90;;;;;;5017362;28;20036;-73
2022/01/04 01:44:52;;;;;;;1.60;0.73;;;10.70;99.90;;;;;;5023083;28;20029;-73
2022/01/04 01:47:18;;;;;;;2.17;0.60;;;10.70;99.90;;;;;;5019660;28;20030;-72
2022/01/04 01:49:44;;;;;;;1.73;0.85;;;10.70;99.90;;;;;;5006908;28;20029;-72
2022/01/04 01:52:10;;;;;;;1.52;0.77;;;10.70;99.90;;;;;;5022789;28;20026;-73
2022/01/04 01:54:45;;;;;;;1.90;0.95;;;10.70;99.90;;;;;;5018978;28;20024;-73
2022/01/04 01:57:10;;;;;;;1.20;0.63;;;10.70;99.90;;;;;;5022307;28;20108;-73
2022/01/04 01:59:36;;;;;;;1.02;0.60;;;10.70;99.90;;;;;;5032135;28;20100;-72
2022/01/04 02:02:05;;;;;;;1.52;0.60;;;10.70;99.90;;;;;;5014217;28;20075;-72
2022/01/04 02:04:31;;;;;;;2.88;0.80;;;10.70;99.90;;;;;;5031679;28;20087;-72
2022/01/04 02:07:00;;;;;;;5.00;0.93;;;10.80;99.90;;;;;;5013987;28;20021;-72
2022/01/04 02:09:26;;;;;;;1.38;0.85;;;10.80;99.90;;;;;;5014311;28;20072;-73
2022/01/04 02:11:54;;;;;;;1.13;0.60;;;10.80;99.90;;;;;;5026392;28;20014;-72
2022/01/04 02:14:20;;;;;;;1.83;0.80;;;10.80;99.90;;;;;;5033462;28;20025;-73
2022/01/04 02:16:45;;;;;;;2.92;0.77;;;10.90;99.90;;;;;;5032220;28;20037;-73
2022/01/04 02:19:11;;;;;;;1.67;0.80;;;10.90;99.90;;;;;;5012573;28;20029;-74
2022/01/04 02:21:37;;;;;;;3.33;0.73;;;10.90;99.90;;;;;;5010357;28;20144;-73
2022/01/04 02:24:04;;;;;;;2.10;1.13;;;10.90;99.90;;;;;;5031521;28;20527;-73
2022/01/04 02:26:31;;;;;;;1.38;0.65;;;11.00;99.90;;;;;;5031899;28;20029;-73
2022/01/04 02:28:57;;;;;;;1.33;0.63;;;11.00;99.90;;;;;;5005854;28;20029;-73
2022/01/04 02:31:23;;;;;;;2.45;0.75;;;11.00;99.90;;;;;;5021743;28;20030;-73
2022/01/04 02:33:52;;;;;;;3.38;1.10;;;11.10;99.90;;;;;;5012926;28;20026;-73
2022/01/04 02:36:17;;;;;;;1.27;0.70;;;11.10;99.90;;;;;;5029036;28;20018;-73
2022/01/04 02:38:43;;;;;;;1.80;0.70;;;11.10;99.90;;;;;;5002864;28;20080;-73
2022/01/04 02:41:09;;;;;;;3.05;0.63;;;11.20;99.90;;;;;;5027414;28;20111;-73
2022/01/04 02:43:34;;;;;;;2.55;0.70;;;11.30;99.90;;;;;;5021142;28;20026;-73
2022/01/04 02:46:00;;;;;;;1.75;0.80;;;11.30;99.90;;;;;;5024995;28;20112;-72
2022/01/04 02:48:26;;;;;;;1.35;0.80;;;11.30;99.90;;;;;;5021165;28;20033;-72
2022/01/04 02:50:52;;;;;;;2.17;1.00;;;11.30;99.90;;;;;;5020730;28;20075;-72
2022/01/04 02:53:18;;;;;;;1.73;1.00;;;11.40;99.90;;;;;;5005853;28;20044;-72
2022/01/04 02:55:45;;;;;;;1.67;0.90;;;11.40;99.90;;;;;;5033514;28;20044;-72
2022/01/04 02:58:11;;;;;;;2.42;0.82;;;11.40;99.90;;;;;;5013339;28;20025;-71
2022/01/04 03:00:37;;;;;;;3.53;0.80;;;11.40;99.90;;;;;;5026179;28;21344;-72
2022/01/04 03:03:03;;;;;;;1.95;0.88;;;11.40;99.90;;;;;;5025522;28;20474;-73
2022/01/04 03:05:29;;;;;;;1.60;0.90;;;11.40;99.90;;;;;;5011572;28;20095;-73
2022/01/04 03:07:54;;;;;;;1.27;0.70;;;11.50;99.90;;;;;;5014317;28;20052;-72
2022/01/04 03:10:20;;;;;;;3.25;0.95;;;11.50;99.90;;;;;;5020443;28;20021;-72
2022/01/04 03:12:51;;;;;;;1.75;0.80;;;11.50;99.90;;;;;;5029599;28;20543;-72
2022/01/04 03:15:17;;;;;;;2.25;0.68;;;11.50;99.90;;;;;;5027217;28;20022;-72
2022/01/04 03:17:43;;;;;;;1.05;0.68;;;11.50;99.90;;;;;;5029216;28;20040;-72
2022/01/04 03:20:10;;;;;;;1.20;0.70;;;11.50;99.90;;;;;;5030035;28;20021;-72
2022/01/04 03:22:36;;;;;;;1.08;0.60;;;11.50;99.90;;;;;;5016278;28;20041;-72
2022/01/04 03:25:02;;;;;;;3.28;0.70;;;11.50;99.90;;;;;;5032225;28;20184;-72
2022/01/04 03:27:28;;;;;;;1.25;0.70;;;11.50;99.90;;;;;;5026734;28;20103;-73
2022/01/04 03:29:54;;;;;;;0.70;0.50;;;11.50;99.90;;;;;;5014282;28;20036;-72
2022/01/04 03:32:20;;;;;;;1.63;0.82;;;11.40;99.90;;;;;;5027416;28;20100;-72
2022/01/04 03:34:54;;;;;;;1.92;0.80;;;11.40;99.90;;;;;;5030391;28;20128;-71
2022/01/04 03:37:20;;;;;;;2.17;0.90;;;11.40;99.90;;;;;;5010832;28;20442;-72
2022/01/04 03:39:48;;;;;;;1.52;0.70;;;11.40;99.90;;;;;;5030736;28;20083;-72
2022/01/04 03:42:14;;;;;;;1.52;0.60;;;11.40;99.90;;;;;;5025902;28;20026;-72
2022/01/04 03:44:40;;;;;;;3.03;0.85;;;11.40;99.90;;;;;;5025945;28;20057;-73
2022/01/04 03:47:06;;;;;;;3.97;0.85;;;11.40;99.90;;;;;;5028752;28;20029;-72
2022/01/04 03:49:34;;;;;;;1.98;0.70;;;11.30;99.90;;;;;;5029060;28;20032;-72
2022/01/04 03:52:00;;;;;;;2.50;0.75;;;11.30;99.90;;;;;;5027396;28;20363;-73
2022/01/04 03:54:32;;;;;;;2.10;0.80;;;11.30;99.90;;;;;;5011594;28;20040;-73
2022/01/04 03:56:58;;;;;;;1.10;0.60;;;11.30;99.90;;;;;;5009274;28;20387;-73
2022/01/04 03:59:23;;;;;;;1.33;0.50;;;11.30;99.90;;;;;;5028494;28;20044;-73
2022/01/04 04:01:49;;;;;;;1.50;0.70;;;11.30;99.90;;;;;;5010221;28;20133;-72
2022/01/04 04:04:16;;;;;;;1.58;0.73;;;11.30;99.90;;;;;;5010987;28;20092;-72
2022/01/04 04:06:42;;;;;;;3.03;0.70;;;11.30;99.90;;;;;;5027422;28;20164;-72
2022/01/04 04:09:14;;;;;;;2.40;0.90;;;11.30;99.90;;;;;;5009104;28;20045;-73
2022/01/04 04:11:40;;;;;;;1.80;0.75;;;11.30;99.90;;;;;;5026145;28;20148;-72
2022/01/04 04:14:05;;;;;;;1.17;0.70;;;11.30;99.90;;;;;;5029871;28;20088;-73
2022/01/04 04:16:33;;;;;;;1.20;0.68;;;11.30;99.90;;;;;;5010349;28;20482;-73
2022/01/04 04:18:58;;;;;;;3.55;0.98;;;11.30;99.90;;;;;;5013977;28;20529;-72
2022/01/04 04:21:27;;;;;;;1.23;0.60;;;11.20;99.90;;;;;;5029464;28;20029;-73
2022/01/04 04:23:53;;;;;;;1.63;0.70;;;11.20;99.90;;;;;;5025898;28;20032;-73
2022/01/04 04:26:18;;;;;;;2.15;0.80;;;11.20;99.90;;;;;;5024381;28;20041;-73
2022/01/04 04:28:44;;;;;;;1.75;0.93;;;11.20;99.90;;;;;;5027938;28;20021;-73
2022/01/04 04:31:10;;;;;;;1.50;0.80;;;11.10;99.90;;;;;;5027379;28;20080;-72
2022/01/04 04:33:35;;;;;;;2.63;0.50;;;11.10;99.90;;;;;;5024520;28;20497;-73
2022/01/04 04:36:01;;;;;;;1.25;0.60;;;11.00;99.90;;;;;;5027017;28;20013;-73
2022/01/04 04:38:28;;;;;;;1.35;0.80;;;11.00;99.90;;;;;;5006522;28;20033;-73
2022/01/04 04:40:53;;;;;;;1.10;0.63;;;11.00;99.90;;;;;;5025549;28;20057;-73
2022/01/04 04:43:19;;;;;;;2.75;0.70;;;10.90;99.90;;;;;;5033432;28;20067;-73
2022/01/04 04:45:45;;;;;;;2.10;0.80;;;10.90;99.90;;;;;;5027694;28;20029;-73
2022/01/04 04:48:10;;;;;;;1.13;0.68;;;10.90;99.90;;;;;;5028015;28;20036;-73
2022/01/04 04:50:36;;;;;;;1.98;0.68;;;10.90;99.90;;;;;;5023698;28;20048;-73
2022/01/04 04:53:02;;;;;;;1.50;0.70;;;10.80;99.90;;;;;;5021589;28;20076;-73
2022/01/04 04:55:30;;;;;;;1.55;0.50;;;10.80;99.90;;;;;;5029555;28;20391;-73
2022/01/04 04:57:56;;;;;;;3.00;1.50;;;10.80;99.90;;;;;;5028807;28;20470;-73
2022/01/04 05:00:22;;;;;;;4.20;1.10;;;10.80;99.90;;;;;;5014564;28;20036;-74
2022/01/04 05:02:51;;;;;;;2.10;1.15;;;10.80;99.90;;;;;;5029239;28;20124;-73
2022/01/04 05:05:17;;;;;;;2.78;0.60;;;10.70;99.90;;;;;;5029952;28;20029;-73
2022/01/04 05:07:42;;;;;;;0.93;0.40;;;10.70;99.90;;;;;;5010598;28;20033;-72
2022/01/04 05:10:09;;;;;;;1.38;0.80;;;10.70;99.90;;;;;;5010382;28;20737;-73
2022/01/04 05:12:35;;;;;;;1.45;0.80;;;10.70;99.90;;;;;;5024696;28;20119;-74
2022/01/04 05:15:02;;;;;;;1.38;0.68;;;10.70;99.90;;;;;;5015733;28;20478;-74
2022/01/04 05:17:29;;;;;;;1.13;0.60;;;10.80;99.90;;;;;;5008901;28;20029;-73
2022/01/04 05:19:55;;;;;;;1.00;0.43;;;10.80;99.90;;;;;;5030712;28;20051;-73
2022/01/04 05:22:21;;;;;;;0.60;0.40;;;10.80;99.90;;;;;;5031819;28;20033;-73
2022/01/04 05:24:46;;;;;;;1.17;0.50;;;10.80;99.90;;;;;;5032696;28;20143;-73
2022/01/04 05:27:12;;;;;;;1.70;0.40;;;10.80;99.90;;;;;;5029196;28;20364;-72
2022/01/04 05:29:38;;;;;;;1.05;0.40;;;10.80;99.90;;;;;;5034634;28;20032;-73
2022/01/04 05:32:04;;;;;;;0.75;0.38;;;10.70;99.90;;;;;;5013640;28;20029;-72
2022/01/04 05:34:38;;;;;;;2.10;0.40;;;10.70;99.90;;;;;;5031063;28;20033;-73
2022/01/04 05:37:04;;;;;;;0.75;0.43;;;10.80;99.90;;;;;;5025228;28;20047;-73
2022/01/04 05:39:30;;;;;;;1.33;0.50;;;10.80;99.90;;;;;;5030186;28;20092;-72
2022/01/04 05:41:56;;;;;;;2.10;0.50;;;10.80;99.90;;;;;;5008433;28;20025;-72
2022/01/04 05:44:21;;;;;;;2.78;0.43;;;10.80;99.90;;;;;;5029195;28;20033;-72
2022/01/04 05:46:47;;;;;;;0.80;0.40;;;10.80;99.90;;;;;;5009504;28;20486;-72
2022/01/04 05:49:13;;;;;;;1.13;0.60;;;10.80;99.90;;;;;;5026932;28;20071;-72
2022/01/04 05:51:39;;;;;;;1.20;0.50;;;10.80;99.90;;;;;;5032299;28;20056;-73
2022/01/04 05:54:04;;;;;;;1.92;0.45;;;10.80;99.90;;;;;;5032302;28;20026;-73
2022/01/04 05:56:31;;;;;;;0.50;0.30;;;10.80;99.90;;;;;;5031911;28;20026;-73
2022/01/04 05:58:56;;;;;;;1.00;0.40;;;10.80;99.90;;;;;;5004016;28;20030;-73
2022/01/04 06:01:22;;;;;;;1.33;0.57;;;10.80;99.90;;;;;;5025804;28;20029;-73
2022/01/04 06:03:51;;;;;;;1.00;0.70;;;10.90;99.90;;;;;;5027910;28;20569;-71
2022/01/04 06:06:16;;;;;;;1.05;0.30;;;10.90;99.90;;;;;;5007697;28;20068;-65
2022/01/04 06:08:42;;;;;;;0.28;0.28;;;11.10;99.90;;;;;;5025838;28;20056;-66
2022/01/04 06:11:18;;;;;;;0.95;0.30;;;11.40;99.90;;;;;;5003442;28;20033;-66
2022/01/04 06:16:28;;;;;;;1.40;0.30;;;11.90;99.90;;;;;;5029624;28;20032;-75
2022/01/04 06:18:54;;;;;;;0.75;0.40;;;11.90;99.90;;;;;;5004490;28;20475;-73
2022/01/04 06:21:19;;;;;;;0.40;0.20;;;11.80;99.90;;;;;;5032487;28;20099;-73
2022/01/04 06:23:45;;;;;;;0.40;0.30;;;11.70;99.90;;;;;;5033885;28;20025;-74
2022/01/04 06:26:11;;;;;;;0.60;0.30;;;11.70;99.90;;;;;;5027621;28;20056;-73
2022/01/04 06:28:38;;;;;;;0.40;0.30;;;11.60;99.90;;;;;;5034520;28;20025;-73
2022/01/04 06:31:04;;;;;;;0.80;0.30;;;11.60;99.90;;;;;;5027661;28;20397;-73
2022/01/04 06:33:29;;;;;;;0.20;0.20;;;11.50;99.90;;;;;;5024353;28;20044;-74
2022/01/04 06:35:55;;;;;;;0.60;0.30;;;11.50;99.90;;;;;;5026757;28;20483;-73
2022/01/04 06:38:21;;;;;;;0.90;0.30;;;11.40;99.90;;;;;;5028171;28;20025;-73
2022/01/04 06:40:46;;;;;;;0.70;0.40;;;11.50;99.90;;;;;;5016458;28;20034;-72
2022/01/04 06:43:12;;;;;;;1.33;0.35;;;11.50;99.90;;;;;;5034426;28;20117;-72
2022/01/04 06:45:38;;;;;;;2.13;0.30;;;11.50;99.90;;;;;;5030632;28;20365;-73
2022/01/04 06:48:04;;;;;;;0.98;0.38;;;11.50;99.90;;;;;;5015244;28;20026;-73
2022/01/04 06:50:30;;;;;;;1.23;0.50;;;11.60;99.90;;;;;;5029775;28;20022;-72
2022/01/04 06:52:56;;;;;;;0.50;0.30;;;11.60;99.90;;;;;;5019014;28;20428;-72
2022/01/04 06:55:22;;;;;;;0.90;0.40;;;11.70;99.90;;;;;;5020203;28;20080;-72
2022/01/04 06:57:47;;;;;;;0.45;0.32;;;11.70;99.90;;;;;;5019968;28;20038;-71
2022/01/04 07:00:14;;;;;;;2.55;1.20;;;11.70;99.90;;;;;;5031702;28;20033;-72
2022/01/04 07:02:39;;;;;;;2.58;0.55;;;11.80;99.90;;;;;;5016874;28;20036;-72
2022/01/04 07:05:05;;;;;;;0.68;0.32;;;11.80;99.90;;;;;;5017019;28;20397;-73
2022/01/04 07:07:31;;;;;;;1.55;0.70;;;11.80;99.90;;;;;;5014297;28;20439;-73
2022/01/04 07:09:57;;;;;;;0.65;0.50;;;11.80;99.90;;;;;;5014874;28;20021;-72
2022/01/04 07:12:22;;;;;;;0.95;0.35;;;11.90;99.90;;;;;;5016212;28;20126;-72
2022/01/04 07:14:48;;;;;;;0.68;0.35;;;11.90;99.90;;;;;;5025475;28;20021;-72
2022/01/04 07:17:14;;;;;;;1.10;0.40;;;11.90;99.90;;;;;;5008797;28;20056;-71
2022/01/04 07:19:39;;;;;;;0.70;0.40;;;11.90;99.90;;;;;;5031102;28;20466;-72
2022/01/04 07:22:05;;;;;;;0.82;0.35;;;11.90;99.90;;;;;;5012462;28;20172;-71
2022/01/04 07:24:31;;;;;;;0.80;0.40;;;11.90;99.90;;;;;;5036812;28;20021;-71
2022/01/04 07:26:57;;;;;;;0.68;0.30;;;12.00;99.90;;;;;;5035862;23;20061;-71
2022/01/04 07:29:23;;;;;;;0.43;0.30;;;12.00;99.90;;;;;;5010934;28;20030;-72
2022/01/04 07:31:48;;;;;;;1.25;0.50;;;12.00;99.90;;;;;;4987574;28;20022;-74
2022/01/04 07:34:14;;;;;;;0.85;0.50;;;12.10;99.90;;;;;;5005290;28;20072;-71
2022/01/04 07:36:40;;;;;;;1.40;0.60;;;12.00;99.90;;;;;;4986342;28;20128;-72
2022/01/04 07:39:05;;;;;;;1.15;0.50;;;12.00;99.90;;;;;;5005386;28;20058;-72
2022/01/04 07:41:31;;;;;;;2.22;0.50;;;12.00;99.90;;;;;;4994720;28;20500;-74
2022/01/04 07:43:57;;;;;;;0.80;0.30;;;12.10;99.90;;;;;;5008579;28;20041;-71
2022/01/04 07:46:25;;;;;;;1.38;0.50;;;12.10;99.90;;;;;;4993791;28;20495;-71
2022/01/04 07:48:51;;;;;;;0.40;0.35;;;12.10;99.90;;;;;;4989447;28;20021;-71
2022/01/04 07:51:18;;;;;;;2.72;0.60;;;12.10;99.90;;;;;;5004267;28;20042;-71
2022/01/04 07:53:43;;;;;;;2.53;0.40;;;12.10;99.90;;;;;;5007502;28;20013;-71
2022/01/04 07:56:09;;;;;;;2.80;0.45;;;12.10;99.90;;;;;;5000730;28;20033;-71
2022/01/04 07:58:35;;;;;;;0.52;0.50;;;12.10;99.90;;;;;;5009002;28;20400;-72
2022/01/04 08:01:00;;;;;;;1.23;0.40;;;12.10;99.90;;;;;;4991042;28;20165;-71
2022/01/04 08:03:29;;;;;;;1.02;0.50;;;12.10;99.90;;;;;;5012597;28;20199;-73
2022/01/04 08:05:55;;;;;;;2.25;0.73;;;12.10;99.90;;;;;;5013199;28;20026;-71
2022/01/04 08:08:21;;;;;;;0.98;0.68;;;12.10;99.90;;;;;;5006755;28;20030;-71
2022/01/04 08:10:48;;;;;;;0.60;0.32;;;12.00;99.90;;;;;;4989430;28;20052;-71
2022/01/04 08:13:14;;;;;;;0.52;0.45;;;12.10;99.90;;;;;;5032933;28;20052;-71
2022/01/04 08:15:39;;;;;;;1.15;0.57;;;12.10;99.90;;;;;;5032473;28;20433;-71
2022/01/04 08:18:05;;;;;;;0.45;0.30;;;12.10;99.90;;;;;;5020786;28;20135;-72
2022/01/04 08:20:31;;;;;;;2.50;0.60;;;12.20;99.90;;;;;;5028334;28;20401;-71
2022/01/04 08:22:57;;;;;;;0.60;0.40;;;12.20;99.90;;;;;;5030789;28;20033;-72
2022/01/04 08:25:23;;;;;;;1.85;0.50;;;12.20;99.90;;;;;;5032641;28;20045;-72
2022/01/04 08:27:49;;;;;;;0.60;0.40;;;12.30;99.90;;;;;;5032598;28;20025;-71
2022/01/04 08:30:15;;;;;;;1.00;0.50;;;12.30;99.90;;;;;;5028887;28;20030;-72
2022/01/04 08:32:41;;;;;;;1.45;0.63;;;12.40;99.90;;;;;;5015097;28;20030;-71
2022/01/04 08:35:07;;;;;;;1.80;0.40;;;12.50;99.90;;;;;;5031410;28;20494;-71
2022/01/04 08:37:33;;;;;;;1.50;0.60;;;12.50;99.90;;;;;;5031476;28;20040;-71
2022/01/04 08:39:59;;;;;;;0.90;0.50;;;12.60;99.90;;;;;;5031804;28;20018;-71
2022/01/04 08:42:25;;;;;;;1.33;0.80;;;12.70;99.90;;;;;;5011953;28;20049;-71
2022/01/04 08:44:51;;;;;;;1.17;0.68;;;12.70;99.90;;;;;;5027215;28;20022;-71
2022/01/04 08:47:18;;;;;;;1.17;0.63;;;12.70;99.90;;;;;;5025659;28;20083;-70
2022/01/04 08:49:43;;;;;;;2.85;0.75;;;12.70;99.90;;;;;;5027215;28;20018;-71
2022/01/04 08:52:09;;;;;;;1.75;0.65;;;12.80;99.90;;;;;;5029788;28;20031;-71
2022/01/04 08:54:36;;;;;;;0.93;0.50;;;12.80;99.90;;;;;;4999372;28;20022;-70
2022/01/04 08:57:02;;;;;;;1.58;0.50;;;12.90;99.90;;;;;;5004851;28;20038;-71
2022/01/04 08:59:28;;;;;;;1.48;0.50;;;12.90;99.90;;;;;;5009989;28;20025;-71
2022/01/04 09:02:04;;;;;;;1.60;0.70;;;13.00;99.90;;;;;;5032560;28;20108;-72
2022/01/04 09:04:30;;;;;;;1.40;0.60;;;13.00;99.90;;;;;;5034628;28;20539;-73
2022/01/04 09:06:56;;;;;;;1.30;0.40;;;13.00;99.90;;;;;;5031467;28;20029;-72
2022/01/04 09:09:21;;;;;;;0.77;0.60;;;13.00;99.90;;;;;;5030325;28;20486;-72
2022/01/04 09:11:50;;;;;;;0.98;0.70;;;13.00;99.90;;;;;;5015465;28;20075;-72
2022/01/04 09:19:35;;;;;;;2.30;0.60;;;13.00;99.90;;;;;;5031865;28;20547;-74
2022/01/04 09:22:00;;;;;;;1.30;0.70;;;12.90;99.90;;;;;;5035837;28;20025;-72
2022/01/04 09:24:26;;;;;;;1.88;0.63;;;12.90;99.90;;;;;;5032752;28;20048;-74
2022/01/04 09:26:55;;;;;;;19.65;4.63;;;12.90;99.90;;;;;;5038801;28;20029;-74
2022/01/04 09:29:21;;;;;;;8.38;1.80;;;12.90;99.90;;;;;;5031720;28;20021;-74
2022/01/04 09:31:48;;;;;;;19.42;3.28;;;12.90;99.90;;;;;;5037063;28;20029;-74
2022/01/04 09:34:15;;;;;;;31.27;5.13;;;12.90;99.90;;;;;;5031455;28;20512;-73
2022/01/04 09:36:41;;;;;;;30.25;3.88;;;13.00;99.90;;;;;;5031489;28;20441;-74
2022/01/04 09:39:18;;;;;;;19.75;4.57;;;12.90;99.90;;;;;;5040667;28;20033;-75
2022/01/04 09:41:44;;;;;;;12.25;2.65;;;12.90;99.90;;;;;;5028808;28;20466;-73
2022/01/04 09:44:12;;;;;;;27.27;4.68;;;12.90;99.90;;;;;;5031784;28;20034;-73
2022/01/04 09:46:38;;;;;;;8.18;1.00;;;12.80;99.90;;;;;;5016165;28;20025;-73
2022/01/04 09:49:04;;;;;;;3.08;0.70;;;12.80;99.90;;;;;;5025460;28;20018;-74
2022/01/04 09:51:31;;;;;;;2.53;1.00;;;12.70;99.90;;;;;;5025805;28;20224;-72
2022/01/04 09:53:56;;;;;;;2.50;0.85;;;12.70;99.90;;;;;;5034534;28;20021;-73
2022/01/04 09:56:22;;;;;;;75.65;13.10;;;12.60;99.90;;;;;;5034875;28;20048;-74
2022/01/04 09:58:51;;;;;;;124.00;14.77;;;12.60;99.90;;;;;;5031681;28;20516;-72
2022/01/04 10:01:23;;;;;;;67.68;8.35;;;12.60;99.90;;;;;;5030766;28;20657;-74
2022/01/04 10:03:50;;;;;;;135.68;19.02;;;12.60;99.90;;;;;;5021893;28;20029;-75
2022/01/04 10:06:15;;;;;;;105.07;13.07;;;12.60;99.90;;;;;;5031637;28;20084;-74
2022/01/04 10:08:55;;;;;;;78.93;10.63;;;12.60;99.90;;;;;;5030499;28;20029;-75
2022/01/04 10:11:37;;;;;;;7.25;1.80;;;12.70;99.90;;;;;;5002712;28;20026;-73
2022/01/04 10:14:24;;;;;;;3.15;0.90;;;12.70;99.90;;;;;;5015203;28;20538;-73
2022/01/04 10:16:56;;;;;;;42.45;4.85;;;12.60;99.90;;;;;;5029660;28;20021;-74
2022/01/04 10:19:32;;;;;;;68.72;7.40;;;12.60;99.90;;;;;;5033342;28;20068;-74
2022/01/04 10:22:14;;;;;;;58.00;4.65;;;12.60;99.90;;;;;;5017872;28;20079;-74
2022/01/04 10:24:40;;;;;;;21.60;2.30;;;12.60;99.90;;;;;;5031083;28;20037;-75
2022/01/04 10:27:30;;;;;;;9.00;1.63;;;12.60;99.90;;;;;;5027978;28;20057;-74
2022/01/04 10:30:36;;;;;;;3.05;1.20;;;12.70;99.90;;;;;;5027920;28;20053;-74
2022/01/04 10:33:11;;;;;;;7.32;2.58;;;12.70;99.90;;;;;;5025357;28;20104;-74
2022/01/04 10:35:41;;;;;;;22.38;2.10;;;12.80;99.90;;;;;;5030787;28;20079;-75
2022/01/04 10:38:19;;;;;;;7.97;1.50;;;12.80;99.90;;;;;;5027288;28;20028;-76
2022/01/04 10:40:48;;;;;;;1.67;0.75;;;13.00;99.90;;;;;;5026630;28;20033;-73
2022/01/04 10:43:17;;;;;;;9.70;1.35;;;13.00;99.90;;;;;;5013496;28;20505;-71
2022/01/04 10:45:47;;;;;;;5.60;1.10;;;13.10;99.90;;;;;;5030768;28;20033;-73
2022/01/04 10:48:20;;;;;;;6.70;1.33;;;13.20;99.90;;;;;;5032202;28;20029;-73
2022/01/04 10:50:50;;;;;;;3.42;1.02;;;13.30;99.90;;;;;;5015276;28;20112;-73
2022/01/04 10:53:23;;;;;;;4.78;1.38;;;13.30;99.90;;;;;;5019126;28;20033;-74
2022/01/04 10:55:50;;;;;;;3.90;1.13;;;13.30;99.90;;;;;;5030792;28;20478;-73
2022/01/04 10:58:26;;;;;;;65.30;6.10;;;13.30;99.90;;;;;;5030138;28;20266;-71
2022/01/04 11:00:54;;;;;;;26.75;4.18;;;13.30;99.90;;;;;;5030517;28;20028;-72
2022/01/04 11:03:32;;;;;;;197.98;20.05;;;13.30;99.90;;;;;;5029425;28;20033;-74
2022/01/04 11:06:04;;;;;;;66.38;7.28;;;13.30;99.90;;;;;;5022791;28;20066;-73
2022/01/04 11:08:30;;;;;;;16.45;2.08;;;13.30;99.90;;;;;;5033548;28;20033;-73
2022/01/04 11:10:57;;;;;;;38.38;2.72;;;13.30;99.90;;;;;;5024234;28;20014;-73
2022/01/04 11:13:23;;;;;;;10.73;2.00;;;13.40;99.90;;;;;;5043463;28;20031;-73
2022/01/04 11:15:49;;;;;;;50.28;4.95;;;13.40;99.90;;;;;;5038994;28;20497;-74
2022/01/04 11:18:16;;;;;;;85.72;9.32;;;13.40;99.90;;;;;;5036639;28;20371;-73
2022/01/04 11:20:42;;;;;;;67.78;4.70;;;13.40;99.90;;;;;;5033992;28;20076;-73
2022/01/04 11:23:08;;;;;;;13.98;1.50;;;13.30;99.90;;;;;;5034235;28;20038;-74
2022/01/04 11:25:34;;;;;;;26.25;1.92;;;13.30;99.90;;;;;;5032136;28;20440;-73
2022/01/04 11:28:01;;;;;;;13.43;1.98;;;13.30;99.90;;;;;;5034143;28;20116;-73
2022/01/04 11:30:47;;;;;;;8.60;1.35;;;13.20;99.90;;;;;;5031477;28;20113;-73
2022/01/04 11:33:44;;;;;;;32.97;4.55;;;13.10;99.90;;;;;;5031038;28;20100;-73
2022/01/04 11:36:14;;;;;;;66.05;7.50;;;13.00;99.90;;;;;;5007497;28;20113;-72
2022/01/04 11:38:47;;;;;;;131.50;14.32;;;13.00;99.90;;;;;;5006749;28;20694;-76
2022/01/04 11:41:34;;;;;;;289.05;31.60;;;12.90;99.90;;;;;;5034516;28;20029;-74
2022/01/04 11:44:20;;;;;;;323.40;33.53;;;12.90;99.90;;;;;;5029317;28;20029;-72
2022/01/04 11:47:06;;;;;;;327.67;33.65;;;12.80;99.90;;;;;;5031634;28;20040;-72
2022/01/04 11:49:32;;;;;;;25.13;4.50;;;12.80;99.90;;;;;;5014666;28;20025;-73
2022/01/04 11:51:58;;;;;;;10.48;2.40;;;12.70;99.90;;;;;;5035959;28;20158;-72
2022/01/04 11:54:28;;;;;;;8.13;3.00;;;12.70;99.90;;;;;;5026384;28;20049;-73
2022/01/04 11:56:54;;;;;;;8.98;2.88;;;12.60;99.90;;;;;;5027793;28;20112;-72
2022/01/04 11:59:56;;;;;;;8.25;3.47;;;12.60;99.90;;;;;;5027134;28;20137;-72
2022/01/04 12:02:38;;;;;;;8.63;3.08;;;12.60;99.90;;;;;;5030193;28;20427;-72
2022/01/04 12:05:18;;;;;;;8.93;2.72;;;12.60;99.90;;;;;;5032580;28;20904;-72
2022/01/04 12:07:49;;;;;;;8.68;2.70;;;12.50;99.90;;;;;;5033108;28;20025;-72
2022/01/04 12:10:31;;;;;;;10.32;2.35;;;12.50;99.90;;;;;;5025198;28;20123;-73
2022/01/04 12:13:09;;;;;;;5.22;2.22;;;12.50;99.90;;;;;;5043351;28;20107;-72
2022/01/04 12:15:35;;;;;;;5.03;2.13;;;12.50;99.90;;;;;;5039277;28;20037;-72
2022/01/04 12:18:36;;;;;;;4.53;1.85;;;12.50;99.90;;;;;;5035867;28;20389;-73
2022/01/04 12:21:26;;;;;;;5.43;1.63;;;12.50;99.90;;;;;;5036664;28;20022;-71
2022/01/04 12:23:52;;;;;;;5.25;1.48;;;12.50;99.90;;;;;;5029621;28;20072;-72
2022/01/04 12:26:18;;;;;;;4.88;1.90;;;12.50;99.90;;;;;;5035668;28;20061;-72
2022/01/04 12:28:57;;;;;;;3.28;1.48;;;12.50;99.90;;;;;;5016893;28;20034;-72
2022/01/04 12:31:35;;;;;;;12.48;1.55;;;12.50;99.90;;;;;;5025887;28;20071;-72
2022/01/04 12:34:07;;;;;;;9.88;1.65;;;12.50;99.90;;;;;;5032225;28;20423;-72
2022/01/04 12:36:41;;;;;;;3.15;1.13;;;12.50;99.90;;;;;;5030815;28;20460;-72
2022/01/04 12:39:11;;;;;;;5.55;1.48;;;12.50;99.90;;;;;;5031226;28;20029;-72
2022/01/04 12:41:41;;;;;;;4.80;2.00;;;12.50;99.90;;;;;;5031115;28;20427;-71
2022/01/04 12:44:10;;;;;;;5.82;2.28;;;12.50;99.90;;;;;;5032878;28;20079;-72
2022/01/04 12:46:46;;;;;;;2.53;1.10;;;12.50;99.90;;;;;;5032689;28;20036;-72
2022/01/04 12:49:23;;;;;;;3.75;1.40;;;12.50;99.90;;;;;;5017019;28;20032;-72
2022/01/04 12:52:00;;;;;;;2.45;0.98;;;12.50;99.90;;;;;;5037073;28;20053;-71
2022/01/04 12:54:28;;;;;;;2.58;1.30;;;12.50;99.90;;;;;;5033101;28;20022;-71
2022/01/04 12:56:57;;;;;;;5.78;1.17;;;12.50;99.90;;;;;;5015010;28;20159;-71
2022/01/04 12:59:23;;;;;;;6.00;1.65;;;12.50;99.90;;;;;;5030980;28;20449;-72
2022/01/04 13:01:55;;;;;;;6.50;1.48;;;12.50;99.90;;;;;;5032402;28;20113;-71
2022/01/04 13:04:23;;;;;;;12.43;1.50;;;12.50;99.90;;;;;;5017974;28;20048;-72
2022/01/04 13:06:50;;;;;;;5.70;1.63;;;12.50;99.90;;;;;;5022713;28;20065;-71